createdAt,value
2023-01-28T00:03:42.523Z,70.80
2023-01-28T00:08:44.590Z,70.96
2023-01-28T00:13:52.883Z,70.68
2023-01-28T00:18:54.888Z,70.87
2023-01-28T00:23:57.359Z,71.18
2023-01-28T00:28:59.142Z,71.16
2023-01-28T00:34:01.023Z,71.14
2023-01-28T00:39:02.981Z,71.49
2023-01-28T00:44:04.755Z,71.78
2023-01-28T00:49:06.659Z,71.51
2023-01-28T00:54:12.835Z,71.04
2023-01-28T00:59:14.693Z,70.60
2023-01-28T01:04:26.399Z,70.73
2023-01-28T01:09:28.345Z,70.16
2023-01-28T01:14:31.887Z,69.66
2023-01-28T01:19:33.629Z,70.11
2023-01-28T01:24:35.482Z,70.00
2023-01-28T01:29:37.213Z,69.39
2023-01-28T01:34:38.895Z,69.29
2023-01-28T01:39:40.651Z,69.13
2023-01-28T01:45:01.806Z,69.64
2023-01-28T01:50:23.103Z,69.40
2023-01-28T01:55:29.716Z,69.62
2023-01-28T02:00:32.466Z,69.58
2023-01-28T02:05:34.419Z,69.33
2023-01-28T02:10:36.525Z,69.42
2023-01-28T02:15:38.818Z,69.64
2023-01-28T02:21:07.328Z,69.50
2023-01-28T02:26:31.785Z,69.42
2023-01-28T02:31:44.883Z,69.53
2023-01-28T02:37:21.186Z,69.78
2023-01-28T02:42:32.306Z,69.86
2023-01-28T02:48:12.552Z,70.21
2023-01-28T02:53:41.029Z,70.56
2023-01-28T02:58:55.977Z,70.99
2023-01-28T03:04:08.245Z,70.79
2023-01-28T03:09:26.903Z,70.81
2023-01-28T03:14:51.181Z,70.61
2023-01-28T03:20:13.516Z,70.48
2023-01-28T03:25:35.479Z,71.09
2023-01-28T03:31:15.869Z,70.87
2023-01-28T03:36:42.938Z,70.49
2023-01-28T03:42:00.439Z,70.19
2023-01-28T03:47:02.829Z,70.35
2023-01-28T03:52:04.936Z,70.28
2023-01-28T03:57:06.923Z,69.95
2023-01-28T04:02:11.118Z,69.65
2023-01-28T04:07:16.940Z,69.58
2023-01-28T04:12:51.318Z,69.74
2023-01-28T04:17:54.234Z,69.74
2023-01-28T04:23:01.140Z,69.70
2023-01-28T04:28:04.007Z,69.76
2023-01-28T04:33:06.342Z,69.47
2023-01-28T04:38:37.908Z,69.46
2023-01-28T04:43:57.411Z,69.55
2023-01-28T04:49:19.457Z,69.29
2023-01-28T04:54:46.725Z,68.83
2023-01-28T04:59:48.481Z,68.54
2023-01-28T05:04:51.124Z,68.42
2023-01-28T05:10:19.795Z,68.75
2023-01-28T05:15:22.387Z,69.15
2023-01-28T05:20:24.907Z,68.87
2023-01-28T05:25:30.739Z,68.88
2023-01-28T05:30:32.649Z,69.31
2023-01-28T05:35:34.813Z,69.51
2023-01-28T05:40:36.743Z,69.14
2023-01-28T05:45:39.715Z,69.42
2023-01-28T05:50:47.960Z,69.31
2023-01-28T05:55:54.550Z,69.04
2023-01-28T06:00:56.776Z,69.02
2023-01-28T06:06:02.127Z,69.49
2023-01-28T06:11:04.741Z,69.48
2023-01-28T06:16:08.765Z,69.39
2023-01-28T06:21:19.489Z,69.75
2023-01-28T06:26:21.474Z,70.31
2023-01-28T06:31:23.267Z,71.03
2023-01-28T06:36:25.143Z,71.52
2023-01-28T06:41:27.198Z,71.88
2023-01-28T06:46:29.121Z,72.03
2023-01-28T06:51:31.240Z,71.87
2023-01-28T06:56:33.546Z,71.80
2023-01-28T07:01:35.472Z,71.61
2023-01-28T07:06:37.551Z,71.41
2023-01-28T07:11:39.419Z,71.14
2023-01-28T07:16:41.189Z,71.12
2023-01-28T07:21:42.881Z,70.75
2023-01-28T07:26:44.730Z,70.58
2023-01-28T07:31:46.836Z,70.51
2023-01-28T07:36:48.740Z,70.26
2023-01-28T07:41:50.759Z,69.75
2023-01-28T07:47:12.797Z,69.35
2023-01-28T07:52:15.352Z,69.78
2023-01-28T07:57:23.260Z,69.16
2023-01-28T08:02:25.208Z,68.24
2023-01-28T08:07:27.766Z,67.66
2023-01-28T08:12:29.663Z,67.40
2023-01-28T08:17:31.901Z,66.79
2023-01-28T08:22:33.608Z,66.66
2023-01-28T08:27:35.346Z,66.51
2023-01-28T08:32:37.753Z,66.79
2023-01-28T08:37:39.457Z,66.46
2023-01-28T08:42:47.161Z,66.10
2023-01-28T08:47:54.316Z,65.72
2023-01-28T08:53:09.915Z,65.62
2023-01-28T08:58:14.320Z,65.26
2023-01-28T09:03:16.925Z,65.10
2023-01-28T09:08:18.773Z,64.87
2023-01-28T09:13:20.551Z,64.71
2023-01-28T09:18:22.274Z,64.25
2023-01-28T09:23:24.045Z,64.43
2023-01-28T09:28:25.760Z,63.24
2023-01-28T09:33:27.413Z,62.92
2023-01-28T09:38:32.400Z,63.24
2023-01-28T09:43:43.171Z,63.62
2023-01-28T09:48:49.467Z,62.62
2023-01-28T09:53:55.504Z,62.12
2023-01-28T09:59:02.141Z,62.18
2023-01-28T10:04:33.820Z,61.41
2023-01-28T10:09:56.469Z,61.47
2023-01-28T10:15:22.179Z,60.17
2023-01-28T10:20:31.007Z,60.34
2023-01-28T10:25:34.800Z,60.20
2023-01-28T10:30:40.511Z,59.83
2023-01-28T10:35:43.735Z,59.98
2023-01-28T10:40:49.220Z,59.95
2023-01-28T10:46:01.900Z,60.05
2023-01-28T10:51:07.218Z,60.23
2023-01-28T10:56:15.918Z,59.69
2023-01-28T11:01:17.699Z,59.79
2023-01-28T11:06:27.531Z,59.67
2023-01-28T11:11:29.953Z,59.83
2023-01-28T11:16:31.920Z,59.61
2023-01-28T11:21:35.496Z,59.64
2023-01-28T11:26:39.918Z,59.35
2023-01-28T11:31:44.500Z,59.12
2023-01-28T11:36:52.472Z,59.14
2023-01-28T11:41:55.519Z,59.36
2023-01-28T11:47:05.438Z,59.42
2023-01-28T11:53:04.894Z,59.29
2023-01-28T11:58:12.424Z,59.29
2023-01-28T12:04:02.912Z,59.26
2023-01-28T12:09:19.368Z,59.57
2023-01-28T12:14:42.281Z,59.18
2023-01-28T12:20:05.897Z,59.27
2023-01-28T12:25:13.430Z,59.47
2023-01-28T12:30:24.237Z,59.13
2023-01-28T12:35:56.391Z,59.21
2023-01-28T12:41:09.295Z,59.93
2023-01-28T12:46:29.842Z,60.17
2023-01-28T12:51:39.532Z,60.40
2023-01-28T12:56:46.319Z,60.89
2023-01-28T13:02:11.182Z,61.34
2023-01-28T13:07:18.220Z,61.79
2023-01-28T13:12:20.999Z,62.52
2023-01-28T13:17:29.565Z,62.81
2023-01-28T13:22:40.049Z,63.43
2023-01-28T13:27:41.826Z,63.78
2023-01-28T13:32:54.883Z,63.72
2023-01-28T13:37:57.444Z,63.85
2023-01-28T13:43:44.416Z,64.56
2023-01-28T13:48:52.145Z,65.00
2023-01-28T13:53:58.768Z,64.83
2023-01-28T13:59:23.781Z,65.51
2023-01-28T14:04:44.238Z,65.54
2023-01-28T14:09:59.882Z,66.23
2023-01-28T14:15:49.395Z,65.66
2023-01-28T14:20:53.262Z,66.10
2023-01-28T14:26:17.661Z,65.79
2023-01-28T14:31:27.994Z,66.06
2023-01-28T14:36:30.395Z,66.38
2023-01-28T14:41:32.375Z,66.84
2023-01-28T14:46:42.559Z,67.36
2023-01-28T14:51:54.344Z,67.87
2023-01-28T14:57:37.612Z,68.63
2023-01-28T15:02:44.930Z,69.49
2023-01-28T15:07:59.059Z,70.09
2023-01-28T15:13:11.282Z,69.99
2023-01-28T15:18:15.510Z,70.30
2023-01-28T15:23:20.882Z,70.62
2023-01-28T15:28:31.664Z,71.27
2023-01-28T15:33:33.390Z,71.65
2023-01-28T15:38:35.212Z,71.66
2023-01-28T15:43:38.793Z,71.96
2023-01-28T15:48:44.313Z,72.50
2023-01-28T15:53:50.004Z,72.87
2023-01-28T15:58:51.953Z,73.82
2023-01-28T16:04:02.839Z,74.34
2023-01-28T16:09:22.469Z,74.52
2023-01-28T16:14:30.860Z,74.86
2023-01-28T16:19:42.155Z,75.54
2023-01-28T16:24:52.734Z,76.17
2023-01-28T16:30:01.592Z,76.40
2023-01-28T16:35:06.819Z,76.71
2023-01-28T16:40:09.961Z,77.70
2023-01-28T16:45:18.917Z,79.06
2023-01-28T16:50:22.157Z,79.78
2023-01-28T16:55:24.612Z,79.73
2023-01-28T17:00:27.573Z,80.27
2023-01-28T17:05:29.444Z,80.19
2023-01-28T17:10:31.504Z,80.67
2023-01-28T17:15:35.402Z,80.79
2023-01-28T17:20:40.379Z,80.66
2023-01-28T17:25:43.386Z,80.80
2023-01-28T17:30:45.169Z,80.56
2023-01-28T17:35:48.235Z,80.72
2023-01-28T17:40:50.125Z,80.65
2023-01-28T17:45:52.049Z,80.62
2023-01-28T17:50:57.411Z,80.64
2023-01-28T17:55:59.154Z,81.10
2023-01-28T18:01:08.538Z,81.38
2023-01-28T18:06:10.486Z,82.05
2023-01-28T18:11:14.871Z,82.80
2023-01-28T18:16:20.783Z,82.90
2023-01-28T18:21:51.295Z,83.04
2023-01-28T18:26:55.716Z,83.42
2023-01-28T18:31:58.632Z,83.82
2023-01-28T18:37:01.250Z,84.36
2023-01-28T18:42:02.935Z,84.45
2023-01-28T18:47:04.689Z,84.76
2023-01-28T18:52:06.518Z,84.80
2023-01-28T18:57:08.197Z,85.25
2023-01-28T19:02:13.996Z,85.24
2023-01-28T19:07:15.847Z,85.15
2023-01-28T19:12:17.717Z,85.34
2023-01-28T19:17:19.775Z,85.29
2023-01-28T19:22:21.683Z,84.90
2023-01-28T19:27:23.765Z,84.77
2023-01-28T19:32:25.849Z,84.72
2023-01-28T19:37:27.729Z,84.60
2023-01-28T19:42:30.123Z,84.27
2023-01-28T19:47:32.798Z,83.98
2023-01-28T19:52:34.434Z,84.19
2023-01-28T19:57:36.137Z,84.15
2023-01-28T20:02:37.899Z,83.83
2023-01-28T20:07:39.629Z,83.95
2023-01-28T20:12:41.290Z,84.20
2023-01-28T20:17:43.172Z,84.11
2023-01-28T20:22:45.268Z,83.62
2023-01-28T20:27:47.651Z,83.58
2023-01-28T20:32:49.438Z,83.41
2023-01-28T20:37:51.412Z,83.34
2023-01-28T20:42:53.391Z,83.42
2023-01-28T20:47:55.116Z,83.23
2023-01-28T20:52:57.222Z,83.10
2023-01-28T20:58:09.171Z,83.14
2023-01-28T21:03:10.943Z,83.18
2023-01-28T21:08:14.601Z,83.37
2023-01-28T21:13:16.358Z,83.17
2023-01-28T21:18:18.252Z,83.20
2023-01-28T21:23:20.215Z,83.06
2023-01-28T21:28:21.960Z,83.04
2023-01-28T21:33:23.862Z,83.44
2023-01-28T21:38:25.841Z,83.25
2023-01-28T21:43:27.622Z,83.03
2023-01-28T21:48:30.628Z,82.82
2023-01-28T21:53:32.318Z,82.51
2023-01-28T21:58:56.823Z,82.13
2023-01-28T22:03:58.898Z,81.69
2023-01-28T22:09:01.100Z,81.31
2023-01-28T22:14:09.418Z,82.07
2023-01-28T22:19:11.877Z,81.45
2023-01-28T22:24:19.478Z,81.14
2023-01-28T22:29:22.974Z,81.70
2023-01-28T22:34:24.792Z,81.54
2023-01-28T22:39:26.522Z,81.13
2023-01-28T22:44:28.279Z,81.31
2023-01-28T22:49:29.956Z,81.18
2023-01-28T22:54:31.972Z,81.53
2023-01-28T22:59:33.806Z,81.52
2023-01-28T23:04:35.558Z,81.67
2023-01-28T23:09:37.280Z,81.69
2023-01-28T23:14:57.864Z,81.95
2023-01-28T23:20:18.533Z,81.99
2023-01-28T23:25:22.742Z,81.66
2023-01-28T23:30:25.393Z,81.33
2023-01-28T23:35:27.499Z,81.41
2023-01-28T23:40:29.377Z,80.78
2023-01-28T23:45:31.133Z,80.75
2023-01-28T23:50:33.077Z,80.54
2023-01-28T23:55:34.793Z,80.43
